Time;durP1;ratioP1;P1;durP2;ratioP2;P2;SDS_P1;SDS_P2;PMS_P1;PMS_P2;Temp;Humidity;BMP_temperature;BMP_pressure;BME280_temperature;BME280_humidity;BME280_pressure;Samples;Min_cycle;Max_cycle;Signal;HPM_P1;HPM_P2
2022/03/28 00:03:36;;;;;;;11.27;8.60;;;10.90;65.00;;;;;;10487708;28;20216;-81
2022/03/28 00:08:39;;;;;;;10.77;9.00;;;10.90;63.60;;;;;;10486594;28;20235;-81
2022/03/28 00:13:43;;;;;;;14.77;9.87;;;10.80;64.60;;;;;;10501240;28;20567;-82
2022/03/28 00:18:45;;;;;;;12.53;9.30;;;10.80;65.10;;;;;;10457099;28;20221;-82
2022/03/28 00:23:47;;;;;;;10.90;9.33;;;10.80;65.10;;;;;;10475819;28;20513;-82
2022/03/28 00:28:51;;;;;;;17.63;10.77;;;10.80;64.40;;;;;;10495578;28;20685;-81
2022/03/28 00:33:53;;;;;;;10.30;9.20;;;10.60;65.50;;;;;;10476406;28;20624;-82
2022/03/28 00:38:55;;;;;;;13.83;9.87;;;10.60;66.00;;;;;;10474156;28;20260;-82
2022/03/28 00:44:01;;;;;;;16.27;10.27;;;10.60;67.20;;;;;;10495987;28;20296;-82
2022/03/28 00:49:04;;;;;;;11.40;9.80;;;10.60;65.50;;;;;;10477777;28;20225;-82
2022/03/28 00:54:07;;;;;;;12.93;9.83;;;10.60;64.70;;;;;;10450697;28;20212;-82
2022/03/28 00:59:12;;;;;;;15.37;11.17;;;10.50;65.20;;;;;;10456402;28;20222;-82
2022/03/28 01:04:15;;;;;;;19.53;12.83;;;10.40;66.20;;;;;;10465347;28;20205;-82
2022/03/28 01:09:17;;;;;;;14.53;11.20;;;10.30;66.10;;;;;;10481031;28;20239;-82
2022/03/28 01:14:21;;;;;;;15.33;11.30;;;10.30;67.20;;;;;;10480607;28;20347;-83
2022/03/28 01:19:24;;;;;;;17.60;10.40;;;10.30;66.10;;;;;;10481883;28;20224;-82
2022/03/28 01:24:28;;;;;;;15.70;11.03;;;10.30;67.10;;;;;;10453013;28;20312;-81
2022/03/28 01:29:31;;;;;;;15.00;11.37;;;10.30;67.40;;;;;;10491232;28;20719;-81
2022/03/28 01:34:33;;;;;;;13.20;10.30;;;10.30;67.50;;;;;;10475613;28;20209;-80
2022/03/28 01:39:36;;;;;;;13.83;10.63;;;10.20;66.80;;;;;;10474015;28;20304;-80
2022/03/28 01:44:38;;;;;;;15.30;10.27;;;10.10;68.00;;;;;;10501757;28;20189;-80
2022/03/28 01:49:40;;;;;;;15.07;9.77;;;10.10;66.70;;;;;;10481112;28;20237;-82
2022/03/28 01:54:44;;;;;;;11.70;9.90;;;10.00;67.30;;;;;;10486175;28;20222;-81
2022/03/28 01:59:46;;;;;;;14.40;11.10;;;9.90;68.80;;;;;;10513616;28;20240;-80
2022/03/28 02:04:48;;;;;;;12.17;10.20;;;9.80;69.00;;;;;;10511197;28;20681;-81
2022/03/28 02:09:52;;;;;;;15.43;10.90;;;9.80;69.90;;;;;;10481566;28;20494;-81
2022/03/28 02:14:54;;;;;;;14.40;9.60;;;9.80;68.90;;;;;;10508677;28;20295;-81
2022/03/28 02:19:56;;;;;;;12.47;9.93;;;9.80;69.20;;;;;;10493684;28;20227;-82
2022/03/28 02:24:59;;;;;;;14.53;10.60;;;9.80;68.50;;;;;;10461647;28;20203;-81
2022/03/28 02:30:02;;;;;;;13.47;10.73;;;9.70;69.60;;;;;;10494139;28;20223;-81
2022/03/28 02:35:05;;;;;;;13.77;9.67;;;9.70;69.80;;;;;;10498926;28;20843;-81
2022/03/28 02:40:12;;;;;;;11.97;10.67;;;9.60;70.90;;;;;;10496626;28;20223;-82
2022/03/28 02:45:14;;;;;;;14.70;10.70;;;9.60;70.80;;;;;;10477816;28;20200;-81
2022/03/28 02:50:16;;;;;;;13.83;10.17;;;9.60;68.70;;;;;;10456025;28;20224;-80
2022/03/28 02:55:20;;;;;;;12.73;10.50;;;9.50;69.70;;;;;;10482717;28;20220;-81
2022/03/28 03:00:22;;;;;;;13.47;11.13;;;9.50;70.30;;;;;;10499443;28;20216;-81
2022/03/28 03:05:24;;;;;;;12.70;10.23;;;9.40;70.00;;;;;;10455751;28;20201;-82
2022/03/28 03:10:28;;;;;;;13.73;11.10;;;9.40;70.80;;;;;;10453011;28;20225;-81
2022/03/28 03:15:30;;;;;;;15.03;10.03;;;9.40;71.10;;;;;;10482271;28;20236;-81
2022/03/28 03:20:32;;;;;;;13.63;10.20;;;9.30;71.40;;;;;;10487980;28;20220;-80
2022/03/28 03:25:36;;;;;;;15.07;10.57;;;9.40;70.50;;;;;;10452196;28;20208;-80
2022/03/28 03:30:38;;;;;;;14.23;10.80;;;9.30;70.70;;;;;;10483718;28;20217;-81
2022/03/28 03:35:40;;;;;;;13.50;11.50;;;9.30;71.00;;;;;;10485176;28;20214;-80
2022/03/28 03:40:43;;;;;;;13.07;9.67;;;9.20;71.30;;;;;;10498676;28;20215;-80
2022/03/28 03:45:46;;;;;;;15.13;10.40;;;9.20;71.90;;;;;;10480546;28;20618;-80
2022/03/28 03:50:48;;;;;;;13.87;10.83;;;9.20;71.20;;;;;;10487693;28;20693;-80
2022/03/28 03:55:51;;;;;;;14.03;9.97;;;9.20;71.30;;;;;;10485192;28;20241;-80
2022/03/28 04:00:54;;;;;;;12.60;9.87;;;9.10;71.20;;;;;;10463349;28;20759;-82
2022/03/28 04:05:56;;;;;;;15.33;10.80;;;9.10;71.80;;;;;;10477929;28;20223;-81
2022/03/28 04:10:59;;;;;;;13.83;10.43;;;9.10;71.30;;;;;;10496365;28;20221;-81
2022/03/28 04:16:02;;;;;;;12.90;10.30;;;9.10;72.00;;;;;;10490323;28;20711;-83
2022/03/28 04:21:04;;;;;;;12.93;10.60;;;9.00;72.10;;;;;;10486486;28;20787;-81
2022/03/28 04:26:07;;;;;;;12.83;10.20;;;9.00;73.00;;;;;;10480101;28;20232;-82
2022/03/28 04:31:11;;;;;;;12.47;10.37;;;9.00;72.80;;;;;;10493642;28;20216;-82
2022/03/28 04:36:13;;;;;;;14.50;11.27;;;8.90;73.20;;;;;;10499944;28;20228;-82
2022/03/28 04:41:17;;;;;;;15.37;10.93;;;8.90;72.60;;;;;;10500359;28;20227;-82
2022/03/28 04:46:19;;;;;;;17.77;10.93;;;8.90;73.50;;;;;;10478821;28;20236;-82
2022/03/28 04:51:21;;;;;;;17.50;11.10;;;8.90;73.30;;;;;;10497085;28;20221;-82
2022/03/28 04:56:25;;;;;;;13.57;10.87;;;8.80;73.20;;;;;;10481270;28;20220;-82
2022/03/28 05:01:27;;;;;;;14.17;12.03;;;8.80;73.60;;;;;;10485617;28;20251;-81
2022/03/28 05:06:30;;;;;;;15.93;11.50;;;8.80;72.70;;;;;;10499003;28;20219;-81
2022/03/28 05:11:33;;;;;;;19.73;13.37;;;8.80;73.20;;;;;;10489809;28;20235;-82
2022/03/28 05:16:36;;;;;;;15.37;12.80;;;8.70;72.30;;;;;;10482012;28;20220;-82
2022/03/28 05:21:38;;;;;;;20.17;11.83;;;8.70;73.80;;;;;;10488250;28;20235;-82
2022/03/28 05:26:41;;;;;;;17.43;11.30;;;8.70;73.90;;;;;;10494591;28;20197;-81
2022/03/28 05:31:43;;;;;;;17.73;11.73;;;8.60;73.10;;;;;;10492271;28;20238;-82
2022/03/28 05:36:46;;;;;;;16.60;12.20;;;8.70;73.70;;;;;;10492391;28;20230;-81
2022/03/28 05:41:52;;;;;;;21.90;12.47;;;8.70;73.90;;;;;;10481347;28;20227;-82
2022/03/28 05:46:54;;;;;;;16.80;12.50;;;8.70;73.80;;;;;;10482735;28;20216;-82
2022/03/28 05:51:56;;;;;;;28.77;13.70;;;8.70;73.50;;;;;;10495172;28;20220;-81
2022/03/28 05:57:00;;;;;;;16.47;13.33;;;8.70;73.60;;;;;;10475596;28;20266;-81
2022/03/28 06:02:03;;;;;;;19.10;11.60;;;8.80;74.40;;;;;;10479964;28;20576;-81
2022/03/28 06:07:06;;;;;;;15.83;11.63;;;8.80;73.80;;;;;;10480084;28;20224;-81
2022/03/28 06:12:11;;;;;;;18.00;12.20;;;8.80;73.50;;;;;;10459694;28;20686;-81
2022/03/28 06:17:20;;;;;;;20.07;12.13;;;8.90;73.50;;;;;;10489308;28;20262;-81
2022/03/28 06:22:22;;;;;;;17.87;11.43;;;8.90;74.40;;;;;;10483023;28;20205;-81
2022/03/28 06:27:26;;;;;;;18.17;13.03;;;9.00;73.40;;;;;;10486447;28;20216;-81
2022/03/28 06:32:28;;;;;;;16.37;12.80;;;9.00;73.40;;;;;;10470029;28;20211;-81
2022/03/28 06:37:36;;;;;;;14.07;11.50;;;9.00;72.60;;;;;;10481852;28;20333;-81
2022/03/28 06:42:39;;;;;;;16.93;12.30;;;9.10;73.20;;;;;;10492030;28;20625;-81
2022/03/28 06:47:42;;;;;;;17.30;12.20;;;9.20;73.60;;;;;;10496516;28;20222;-81
2022/03/28 06:52:44;;;;;;;23.90;12.17;;;9.20;73.70;;;;;;10490564;28;20192;-81
2022/03/28 06:57:47;;;;;;;21.80;12.50;;;9.40;75.20;;;;;;10492026;28;20231;-81
2022/03/28 07:02:50;;;;;;;20.47;14.13;;;9.50;75.00;;;;;;10496613;28;20233;-80
2022/03/28 07:07:52;;;;;;;19.43;12.77;;;9.70;75.70;;;;;;10482587;28;20224;-80
2022/03/28 07:12:55;;;;;;;14.83;12.33;;;9.80;74.50;;;;;;10492738;28;20205;-81
2022/03/28 07:18:02;;;;;;;15.30;11.37;;;9.90;74.80;;;;;;10499247;28;20328;-80
2022/03/28 07:23:06;;;;;;;23.00;17.10;;;10.10;73.00;;;;;;10487054;28;20208;-80
2022/03/28 07:28:12;;;;;;;19.60;13.43;;;10.20;74.40;;;;;;10488587;28;20212;-81
2022/03/28 07:33:14;;;;;;;17.00;13.63;;;10.40;74.10;;;;;;10490493;28;20208;-81
2022/03/28 07:38:16;;;;;;;20.97;14.50;;;10.40;73.50;;;;;;10482775;28;20228;-80
2022/03/28 07:43:20;;;;;;;19.73;14.27;;;10.60;74.40;;;;;;10497452;28;20224;-80
2022/03/28 07:48:22;;;;;;;23.23;15.07;;;10.70;73.80;;;;;;10488118;28;20216;-80
2022/03/28 07:53:25;;;;;;;19.90;14.13;;;10.90;73.90;;;;;;10480623;28;20693;-80
2022/03/28 07:58:29;;;;;;;21.57;13.60;;;11.10;74.30;;;;;;10491698;28;20311;-80
2022/03/28 08:03:31;;;;;;;26.43;15.17;;;11.30;75.30;;;;;;10490405;28;20239;-81
2022/03/28 08:08:35;;;;;;;24.27;15.10;;;11.60;73.50;;;;;;10489094;28;20353;-81
2022/03/28 08:13:39;;;;;;;19.53;13.50;;;12.00;74.30;;;;;;10482762;28;20200;-80
2022/03/28 08:18:41;;;;;;;18.07;12.57;;;12.30;74.00;;;;;;10478158;28;20315;-81
2022/03/28 08:23:43;;;;;;;22.80;14.60;;;12.60;73.80;;;;;;10484882;28;20827;-82
2022/03/28 08:28:47;;;;;;;22.87;14.23;;;12.80;72.70;;;;;;10496195;28;20322;-82
2022/03/28 08:33:49;;;;;;;19.50;13.93;;;13.10;70.30;;;;;;10496021;28;20555;-80
2022/03/28 08:38:51;;;;;;;15.40;12.90;;;13.40;68.90;;;;;;10477261;28;20704;-80
2022/03/28 08:43:55;;;;;;;16.27;13.50;;;13.60;68.90;;;;;;10497607;28;20612;-80
2022/03/28 08:48:58;;;;;;;15.50;12.63;;;13.80;70.10;;;;;;10471888;28;20589;-81
2022/03/28 08:54:01;;;;;;;17.40;13.00;;;14.00;68.40;;;;;;10497397;28;20224;-80
2022/03/28 08:59:05;;;;;;;16.20;13.10;;;14.20;67.40;;;;;;10494784;28;20228;-81
2022/03/28 09:04:09;;;;;;;17.70;12.60;;;14.30;66.80;;;;;;10496434;28;20196;-80
2022/03/28 09:09:13;;;;;;;19.90;13.30;;;14.50;67.20;;;;;;10498838;28;20306;-80
2022/03/28 09:14:25;;;;;;;21.17;14.00;;;14.70;64.40;;;;;;10489519;28;20253;-80
2022/03/28 09:19:42;;;;;;;16.53;13.20;;;14.90;64.90;;;;;;10479202;28;20228;-80
2022/03/28 09:24:46;;;;;;;14.93;11.60;;;15.20;65.20;;;;;;10462402;28;20212;-80
2022/03/28 09:30:01;;;;;;;17.67;12.90;;;15.50;64.80;;;;;;10467290;28;20299;-81
2022/03/28 09:35:19;;;;;;;16.00;13.20;;;15.70;64.20;;;;;;10454539;28;20587;-81
2022/03/28 09:40:26;;;;;;;14.60;11.43;;;16.00;63.10;;;;;;10458444;28;20221;-81
2022/03/28 09:45:32;;;;;;;16.23;12.67;;;16.20;62.00;;;;;;10463131;28;20201;-80
2022/03/28 09:50:38;;;;;;;17.53;13.53;;;16.50;61.60;;;;;;10458681;28;20274;-81
2022/03/28 09:55:48;;;;;;;17.80;12.73;;;16.80;61.20;;;;;;10465450;28;20284;-81
2022/03/28 10:00:52;;;;;;;18.30;14.17;;;17.10;60.40;;;;;;10491230;28;20228;-82
2022/03/28 10:05:54;;;;;;;27.03;14.70;;;17.40;60.10;;;;;;10503296;28;20204;-83
2022/03/28 10:10:58;;;;;;;21.13;13.90;;;17.70;59.10;;;;;;10469430;28;20630;-83
2022/03/28 10:16:03;;;;;;;18.60;14.07;;;17.80;58.40;;;;;;10479345;28;20703;-83
2022/03/28 10:21:08;;;;;;;16.27;12.70;;;17.70;59.20;;;;;;10480611;28;20221;-83
2022/03/28 10:26:12;;;;;;;24.20;15.80;;;17.60;60.20;;;;;;10468129;28;20655;-83
2022/03/28 10:31:18;;;;;;;21.30;14.67;;;17.40;57.70;;;;;;10469184;28;20256;-83
2022/03/28 10:36:23;;;;;;;19.10;13.80;;;17.30;59.70;;;;;;10456263;28;20236;-83
2022/03/28 10:41:27;;;;;;;18.73;13.20;;;17.10;59.60;;;;;;10438064;28;20229;-80
2022/03/28 10:46:35;;;;;;;19.43;14.70;;;17.00;60.20;;;;;;10481825;28;20196;-81
2022/03/28 10:51:48;;;;;;;16.90;14.60;;;17.00;60.50;;;;;;10464112;28;20209;-81
2022/03/28 10:56:57;;;;;;;23.43;14.57;;;16.90;61.10;;;;;;10488089;28;20584;-81
2022/03/28 11:02:02;;;;;;;21.23;15.43;;;16.80;60.40;;;;;;10469113;28;20315;-81
2022/03/28 11:07:07;;;;;;;18.13;15.00;;;16.90;59.30;;;;;;10463805;28;20252;-83
2022/03/28 11:12:14;;;;;;;23.00;15.30;;;17.00;57.20;;;;;;10489965;28;20763;-81
2022/03/28 11:17:20;;;;;;;19.80;14.97;;;17.00;58.50;;;;;;10487945;28;20232;-81
2022/03/28 11:22:41;;;;;;;21.67;14.33;;;17.00;59.90;;;;;;10475416;28;20673;-81
2022/03/28 11:27:43;;;;;;;19.20;14.83;;;16.90;56.50;;;;;;10468896;28;20212;-81
2022/03/28 11:32:47;;;;;;;18.50;13.33;;;16.90;56.40;;;;;;10457913;28;20216;-81
2022/03/28 11:37:49;;;;;;;16.27;13.03;;;17.00;55.70;;;;;;10456370;28;20273;-82
2022/03/28 11:42:54;;;;;;;19.03;14.13;;;16.90;56.00;;;;;;10447181;28;20986;-82
2022/03/28 11:47:59;;;;;;;18.43;13.73;;;16.90;55.60;;;;;;10481926;28;20229;-82
2022/03/28 11:53:01;;;;;;;21.90;15.57;;;16.90;55.70;;;;;;10486909;28;20197;-82
2022/03/28 11:58:19;;;;;;;21.37;14.20;;;17.00;55.80;;;;;;10466849;28;20232;-82
2022/03/28 12:03:22;;;;;;;17.47;14.20;;;17.00;55.50;;;;;;10467832;28;20208;-82
2022/03/28 12:08:25;;;;;;;23.50;14.73;;;17.10;55.60;;;;;;10485964;28;20229;-81
2022/03/28 12:13:27;;;;;;;18.93;14.43;;;17.10;56.10;;;;;;10481454;28;20311;-83
2022/03/28 12:18:31;;;;;;;21.30;15.60;;;17.20;55.60;;;;;;10457430;28;20231;-82
2022/03/28 12:23:33;;;;;;;18.27;14.60;;;17.20;55.50;;;;;;10463213;28;20228;-82
2022/03/28 12:28:38;;;;;;;24.93;15.60;;;17.30;56.70;;;;;;10454762;28;20221;-82
2022/03/28 12:33:46;;;;;;;22.13;15.10;;;17.30;56.80;;;;;;10462874;28;20197;-83
2022/03/28 12:38:57;;;;;;;15.43;13.00;;;17.30;56.00;;;;;;10473965;28;20244;-83
2022/03/28 12:43:59;;;;;;;25.37;14.60;;;17.40;56.00;;;;;;10469844;28;20296;-82
2022/03/28 12:49:11;;;;;;;21.63;14.50;;;17.50;56.60;;;;;;10461406;28;20220;-80
2022/03/28 12:54:18;;;;;;;20.00;13.50;;;17.50;56.80;;;;;;10469500;28;20254;-81
2022/03/28 12:59:21;;;;;;;22.17;14.10;;;17.50;56.30;;;;;;10465013;28;20311;-81
2022/03/28 13:04:25;;;;;;;21.07;14.87;;;17.50;57.50;;;;;;10450721;28;20205;-82
2022/03/28 13:09:28;;;;;;;19.70;12.47;;;17.40;57.40;;;;;;10429876;28;21397;-82
2022/03/28 13:14:33;;;;;;;18.03;14.00;;;17.40;57.60;;;;;;10454520;28;20214;-81
2022/03/28 13:19:36;;;;;;;16.27;12.17;;;17.50;57.60;;;;;;10483279;28;20220;-81
2022/03/28 13:24:40;;;;;;;15.20;13.20;;;17.50;57.90;;;;;;10488784;28;20200;-80
2022/03/28 13:29:43;;;;;;;19.00;12.93;;;17.50;57.50;;;;;;10481018;28;20224;-80
2022/03/28 13:34:46;;;;;;;13.37;11.07;;;17.50;58.10;;;;;;10461721;28;20197;-81
2022/03/28 13:39:48;;;;;;;13.13;11.70;;;17.50;56.90;;;;;;10475480;28;20230;-80
2022/03/28 13:44:51;;;;;;;19.27;12.17;;;17.60;58.20;;;;;;10488155;28;20719;-80
2022/03/28 13:49:55;;;;;;;20.10;11.90;;;17.50;60.20;;;;;;10489527;28;20243;-81
2022/03/28 13:54:58;;;;;;;16.27;11.77;;;17.40;58.60;;;;;;10491653;28;20208;-81
2022/03/28 14:00:00;;;;;;;13.83;12.17;;;17.40;57.30;;;;;;10473149;28;20224;-82
2022/03/28 14:05:05;;;;;;;12.23;10.50;;;17.30;57.30;;;;;;10490940;28;20621;-82
2022/03/28 14:10:08;;;;;;;16.03;11.63;;;17.40;56.10;;;;;;10489007;28;20252;-81
2022/03/28 14:15:12;;;;;;;14.30;11.57;;;17.50;55.00;;;;;;10489436;28;20598;-82
2022/03/28 14:20:18;;;;;;;20.00;10.27;;;17.60;54.80;;;;;;10478007;28;20582;-80
2022/03/28 14:25:22;;;;;;;14.40;10.47;;;17.70;53.80;;;;;;10490162;28;20209;-80
2022/03/28 14:30:24;;;;;;;14.03;10.83;;;17.80;55.60;;;;;;10487629;28;20208;-80
2022/03/28 14:35:34;;;;;;;15.23;10.43;;;17.70;54.40;;;;;;10488550;28;20228;-81
2022/03/28 14:40:36;;;;;;;12.90;10.57;;;17.70;56.60;;;;;;10491236;28;20220;-83
2022/03/28 14:51:00;;;;;;;9.37;8.37;;;17.70;55.00;;;;;;10462555;28;20212;-82
2022/03/28 14:56:02;;;;;;;10.73;9.30;;;17.70;53.30;;;;;;10503599;28;20262;-83
2022/03/28 15:01:04;;;;;;;14.93;8.90;;;17.80;53.20;;;;;;10491119;28;20228;-82
2022/03/28 15:06:08;;;;;;;13.63;9.60;;;18.00;52.70;;;;;;10492682;28;20283;-82
2022/03/28 15:11:13;;;;;;;11.13;9.50;;;18.00;54.70;;;;;;10476666;22;20265;-79
2022/03/28 15:16:15;;;;;;;13.87;11.23;;;17.90;52.00;;;;;;10460839;28;20196;-79
2022/03/28 15:21:19;;;;;;;12.17;10.10;;;17.90;53.20;;;;;;10433419;28;20222;-79
2022/03/28 15:26:21;;;;;;;13.50;8.90;;;17.90;53.60;;;;;;10428407;28;20645;-78
2022/03/28 15:31:25;;;;;;;13.03;9.73;;;17.70;52.50;;;;;;10463306;28;20318;-79
2022/03/28 15:36:31;;;;;;;11.13;9.10;;;17.70;51.90;;;;;;10455362;28;20200;-79
2022/03/28 15:41:35;;;;;;;12.17;8.90;;;17.60;53.40;;;;;;10465133;28;20310;-77
2022/03/28 15:46:37;;;;;;;9.23;8.33;;;17.60;50.20;;;;;;10462031;28;20703;-78
2022/03/28 15:51:41;;;;;;;9.60;7.87;;;17.60;54.00;;;;;;10428643;28;20244;-77
2022/03/28 15:56:44;;;;;;;9.53;8.53;;;17.50;55.00;;;;;;10418857;28;20656;-78
2022/03/28 16:01:49;;;;;;;9.23;8.33;;;17.40;54.80;;;;;;10436926;28;20482;-77
2022/03/28 16:06:53;;;;;;;11.47;8.87;;;17.40;56.90;;;;;;10423048;28;20247;-78
2022/03/28 16:11:56;;;;;;;11.97;8.97;;;17.40;53.30;;;;;;10421349;28;20226;-79
2022/03/28 16:16:59;;;;;;;11.13;9.37;;;17.50;54.60;;;;;;10447524;28;20205;-79
2022/03/28 16:22:03;;;;;;;12.87;9.57;;;17.60;52.80;;;;;;10422893;28;20230;-78
2022/03/28 16:27:06;;;;;;;8.50;7.57;;;17.80;52.40;;;;;;10421134;28;20280;-79
2022/03/28 16:32:09;;;;;;;8.77;7.43;;;17.80;51.30;;;;;;10430102;28;20228;-79
2022/03/28 16:37:14;;;;;;;8.47;7.50;;;17.70;54.40;;;;;;10416640;28;20650;-77
2022/03/28 16:42:16;;;;;;;10.23;8.10;;;17.60;55.00;;;;;;10409241;28;20205;-78
2022/03/28 16:47:20;;;;;;;8.10;6.20;;;17.40;56.60;;;;;;10423071;28;20324;-79
2022/03/28 16:52:23;;;;;;;14.00;8.20;;;17.30;57.40;;;;;;10409827;28;20338;-79
2022/03/28 16:57:27;;;;;;;9.10;7.73;;;17.10;56.20;;;;;;10418308;28;20299;-79
2022/03/28 17:02:29;;;;;;;10.40;8.73;;;17.00;58.00;;;;;;10434555;28;20201;-79
2022/03/28 17:07:33;;;;;;;10.40;8.40;;;16.90;58.60;;;;;;10435691;28;20300;-79
2022/03/28 17:12:36;;;;;;;9.47;8.47;;;16.80;58.80;;;;;;10414247;28;20850;-78
2022/03/28 17:17:38;;;;;;;8.30;7.43;;;16.70;58.80;;;;;;10422829;28;20236;-78
2022/03/28 17:22:42;;;;;;;9.73;8.27;;;16.60;59.70;;;;;;10410012;28;20364;-78
2022/03/28 17:27:48;;;;;;;7.83;6.60;;;16.50;61.10;;;;;;10442844;28;20224;-82
2022/03/28 17:32:52;;;;;;;9.57;6.53;;;16.30;61.90;;;;;;10412030;28;20241;-83
2022/03/28 17:37:56;;;;;;;8.87;7.50;;;16.20;61.80;;;;;;10433849;28;20214;-81
2022/03/28 17:43:02;;;;;;;10.40;8.23;;;16.10;63.60;;;;;;10449640;28;20223;-81
2022/03/28 17:48:06;;;;;;;11.33;8.90;;;16.00;64.30;;;;;;10423072;28;20213;-81
2022/03/28 17:53:10;;;;;;;12.33;8.30;;;15.90;57.40;;;;;;10432725;28;20204;-82
2022/03/28 17:58:12;;;;;;;13.60;8.57;;;16.00;55.80;;;;;;10442414;28;20231;-81
2022/03/28 18:03:14;;;;;;;13.77;11.13;;;16.10;54.90;;;;;;10429843;28;20579;-81
2022/03/28 18:08:18;;;;;;;19.10;12.87;;;16.00;55.30;;;;;;10443613;28;20221;-81
2022/03/28 18:13:21;;;;;;;12.80;10.30;;;16.00;55.00;;;;;;10416813;28;20292;-82
2022/03/28 18:18:23;;;;;;;8.87;7.97;;;15.90;54.50;;;;;;10413478;28;20221;-81
2022/03/28 18:23:27;;;;;;;10.10;8.47;;;15.80;54.70;;;;;;10428703;28;20231;-82
2022/03/28 18:28:29;;;;;;;9.10;7.70;;;15.70;54.80;;;;;;10411090;28;20894;-82
2022/03/28 18:33:31;;;;;;;10.10;8.40;;;15.50;55.00;;;;;;10422304;28;20337;-81
2022/03/28 18:38:36;;;;;;;8.23;7.40;;;15.40;54.80;;;;;;10430458;28;20228;-81
2022/03/28 18:43:38;;;;;;;8.50;7.70;;;15.30;55.00;;;;;;10430628;28;20322;-81
2022/03/28 18:48:40;;;;;;;9.10;7.23;;;15.20;55.10;;;;;;10443730;28;20241;-81
2022/03/28 18:53:45;;;;;;;9.07;6.27;;;15.10;54.70;;;;;;10410148;28;20297;-81
2022/03/28 18:58:47;;;;;;;9.70;7.67;;;15.00;54.60;;;;;;10413298;28;20229;-81
2022/03/28 19:03:50;;;;;;;13.60;11.67;;;14.90;54.90;;;;;;10420854;28;20248;-81
2022/03/28 19:08:54;;;;;;;21.67;15.20;;;14.70;55.00;;;;;;10425818;28;20661;-81
2022/03/28 19:13:56;;;;;;;12.73;10.60;;;14.60;55.30;;;;;;10412056;28;20206;-81
2022/03/28 19:18:58;;;;;;;9.27;8.27;;;14.60;55.50;;;;;;10433012;28;20601;-81
2022/03/28 19:24:02;;;;;;;11.43;8.67;;;14.40;55.70;;;;;;10402185;28;20590;-80
2022/03/28 19:29:04;;;;;;;9.90;8.60;;;14.30;55.90;;;;;;10421802;28;20229;-80
2022/03/28 19:34:06;;;;;;;10.30;8.47;;;14.30;56.40;;;;;;10416088;28;20195;-81
2022/03/28 19:39:10;;;;;;;8.90;7.90;;;14.20;56.70;;;;;;10396610;28;20259;-80
2022/03/28 19:44:12;;;;;;;10.50;9.03;;;14.10;57.10;;;;;;10422695;28;20272;-81
2022/03/28 19:49:14;;;;;;;9.70;8.33;;;14.00;57.80;;;;;;10424505;28;21041;-81
2022/03/28 19:54:18;;;;;;;10.23;9.07;;;14.00;58.20;;;;;;10441410;28;20289;-81
2022/03/28 19:59:20;;;;;;;10.47;8.17;;;13.90;58.30;;;;;;10431862;28;20229;-80
2022/03/28 20:04:22;;;;;;;8.83;7.93;;;13.90;58.00;;;;;;10429045;28;20214;-81
2022/03/28 20:09:26;;;;;;;12.83;8.30;;;13.90;58.70;;;;;;10431449;28;20230;-81
2022/03/28 20:14:28;;;;;;;10.63;9.30;;;13.90;58.80;;;;;;10413186;28;20271;-81
2022/03/28 20:19:30;;;;;;;9.80;8.50;;;13.80;59.20;;;;;;10419413;28;20272;-82
2022/03/28 20:24:35;;;;;;;17.80;9.50;;;13.80;62.90;;;;;;10418466;28;20319;-81
2022/03/28 20:29:39;;;;;;;11.33;10.23;;;13.80;61.60;;;;;;10399662;28;20214;-81
2022/03/28 20:34:41;;;;;;;11.07;9.83;;;13.90;59.30;;;;;;10424902;28;20202;-83
2022/03/28 20:39:45;;;;;;;13.97;11.30;;;13.80;59.60;;;;;;10409909;28;20251;-82
2022/03/28 20:44:47;;;;;;;10.50;9.30;;;13.70;59.80;;;;;;10418608;28;20699;-82
2022/03/28 20:49:49;;;;;;;13.63;9.93;;;13.60;60.10;;;;;;10407237;28;20252;-82
2022/03/28 20:54:53;;;;;;;17.63;9.87;;;13.40;60.30;;;;;;10400529;28;20936;-83
2022/03/28 20:59:58;;;;;;;13.03;9.80;;;13.50;59.80;;;;;;10432115;28;20221;-81
2022/03/28 21:05:00;;;;;;;14.80;11.00;;;13.40;60.10;;;;;;10415564;28;20209;-81
2022/03/28 21:10:04;;;;;;;13.03;10.00;;;13.40;59.80;;;;;;10468718;22;20265;-81
2022/03/28 21:15:07;;;;;;;11.50;9.70;;;13.30;60.00;;;;;;10493940;28;20241;-81
2022/03/28 21:20:10;;;;;;;10.40;9.30;;;13.30;60.50;;;;;;10452757;28;20705;-81
2022/03/28 21:25:14;;;;;;;13.83;10.73;;;13.10;61.80;;;;;;10450495;28;20215;-81
2022/03/28 21:30:16;;;;;;;15.63;10.77;;;13.10;63.20;;;;;;10446843;28;20225;-81
2022/03/28 21:35:18;;;;;;;11.70;10.50;;;13.10;62.40;;;;;;10479298;28;20213;-81
2022/03/28 21:40:22;;;;;;;14.30;10.40;;;13.10;64.30;;;;;;10468135;28;20260;-81
2022/03/28 21:45:25;;;;;;;10.70;9.60;;;13.10;64.50;;;;;;10451458;28;20585;-81
2022/03/28 21:50:27;;;;;;;17.00;10.70;;;13.10;63.80;;;;;;10471307;28;20220;-81
2022/03/28 21:55:31;;;;;;;14.57;10.10;;;13.10;65.20;;;;;;10489463;28;20298;-81
2022/03/28 22:00:41;;;;;;;13.50;9.73;;;13.00;65.80;;;;;;10450336;28;20224;-81
2022/03/28 22:05:44;;;;;;;11.83;9.00;;;13.00;66.00;;;;;;10438933;28;20668;-82
2022/03/28 22:10:47;;;;;;;13.10;10.07;;;13.00;66.30;;;;;;10459744;28;20230;-78
2022/03/28 22:15:50;;;;;;;11.00;8.53;;;13.00;64.90;;;;;;10466975;28;20527;-80
2022/03/28 22:20:52;;;;;;;10.57;9.47;;;13.00;65.10;;;;;;10452028;28;20600;-79
2022/03/28 22:25:56;;;;;;;11.37;9.57;;;12.90;65.20;;;;;;10445881;28;20205;-79
2022/03/28 22:30:58;;;;;;;13.60;9.83;;;12.80;65.60;;;;;;10447842;28;20252;-80
2022/03/28 22:36:00;;;;;;;11.40;9.90;;;12.80;65.40;;;;;;10452293;28;20557;-79
2022/03/28 22:41:03;;;;;;;16.20;9.70;;;12.70;66.90;;;;;;10433646;28;20232;-78
2022/03/28 22:46:06;;;;;;;11.60;10.00;;;12.70;65.00;;;;;;10446493;28;20231;-78
2022/03/28 22:51:08;;;;;;;12.63;10.20;;;12.60;64.80;;;;;;10433459;28;20622;-78
2022/03/28 22:56:11;;;;;;;27.10;23.50;;;12.50;67.30;;;;;;10456941;28;20200;-80
2022/03/28 23:01:14;;;;;;;28.30;22.70;;;12.40;67.90;;;;;;10475326;28;20216;-80
2022/03/28 23:06:18;;;;;;;13.70;10.93;;;12.40;67.30;;;;;;10486816;28;20208;-80
2022/03/28 23:11:22;;;;;;;14.07;10.53;;;12.40;69.60;;;;;;10495258;28;20316;-80
2022/03/28 23:16:24;;;;;;;12.97;9.33;;;12.40;67.70;;;;;;10480848;28;20212;-80
2022/03/28 23:21:28;;;;;;;11.40;9.90;;;12.30;67.90;;;;;;10471269;28;20292;-80
2022/03/28 23:26:32;;;;;;;12.20;9.50;;;12.30;69.30;;;;;;10454426;28;20207;-78
2022/03/28 23:31:34;;;;;;;14.73;10.50;;;12.20;69.20;;;;;;10497531;28;20247;-79
2022/03/28 23:36:36;;;;;;;12.23;10.03;;;12.30;67.50;;;;;;10452368;28;20579;-80
2022/03/28 23:41:39;;;;;;;11.13;10.03;;;12.20;69.10;;;;;;10488224;28;20227;-80
2022/03/28 23:46:46;;;;;;;14.27;9.20;;;12.20;69.20;;;;;;10466140;28;20207;-79
2022/03/28 23:51:49;;;;;;;11.17;9.57;;;12.10;70.20;;;;;;10485910;28;20629;-79
2022/03/28 23:57:00;;;;;;;13.60;9.80;;;12.10;70.20;;;;;;10484554;28;20280;-80
